createdAt,value
2023-03-18T00:00:33.281Z,119.50
2023-03-18T00:03:01.015Z,68.28
2023-03-18T00:05:28.828Z,28.13
2023-03-18T00:07:56.924Z,24.88
2023-03-18T00:10:24.976Z,26.80
2023-03-18T00:12:53.573Z,11.63
2023-03-18T00:15:20.902Z,9.25
2023-03-18T00:17:48.770Z,9.25
2023-03-18T00:20:18.506Z,8.73
2023-03-18T00:22:47.006Z,9.93
2023-03-18T00:25:15.637Z,12.10
2023-03-18T00:27:43.331Z,8.82
2023-03-18T00:30:12.668Z,9.90
2023-03-18T00:32:41.671Z,11.93
2023-03-18T00:35:09.602Z,11.75
2023-03-18T00:37:37.050Z,11.95
2023-03-18T00:40:07.953Z,10.20
2023-03-18T00:42:47.528Z,7.20
2023-03-18T00:45:17.344Z,10.02
2023-03-18T00:47:45.227Z,12.10
2023-03-18T00:50:13.848Z,11.30
2023-03-18T00:52:41.246Z,11.70
2023-03-18T00:55:09.506Z,8.15
2023-03-18T00:57:37.380Z,8.75
2023-03-18T01:00:07.382Z,12.50
2023-03-18T01:02:34.998Z,7.65
2023-03-18T01:05:04.146Z,10.43
2023-03-18T01:07:31.411Z,9.00
2023-03-18T01:09:58.742Z,10.63
2023-03-18T01:12:26.045Z,9.10
2023-03-18T01:14:53.317Z,14.25
2023-03-18T01:17:21.007Z,11.02
2023-03-18T01:19:48.933Z,10.18
2023-03-18T01:22:16.473Z,8.80
2023-03-18T01:24:48.058Z,11.40
2023-03-18T01:27:17.170Z,8.00
2023-03-18T01:29:46.948Z,7.85
2023-03-18T01:32:20.336Z,8.52
2023-03-18T01:34:47.827Z,13.85
2023-03-18T01:37:15.122Z,10.13
2023-03-18T01:39:46.962Z,12.98
2023-03-18T01:42:21.592Z,10.18
2023-03-18T01:44:49.167Z,7.20
2023-03-18T01:47:17.602Z,10.10
2023-03-18T01:49:53.050Z,9.48
2023-03-18T01:52:27.302Z,6.78
2023-03-18T01:55:08.822Z,7.25
2023-03-18T01:57:36.725Z,7.97
2023-03-18T02:00:06.542Z,9.45
2023-03-18T02:02:42.657Z,10.65
2023-03-18T02:05:13.212Z,7.57
2023-03-18T02:07:44.461Z,9.13
2023-03-18T02:10:24.153Z,9.45
2023-03-18T02:13:00.823Z,12.93
2023-03-18T02:15:38.823Z,8.37
2023-03-18T02:18:12.027Z,8.13
2023-03-18T02:21:02.458Z,10.25
2023-03-18T02:23:58.695Z,9.00
2023-03-18T02:26:31.575Z,11.43
2023-03-18T02:29:03.474Z,8.43
2023-03-18T02:31:39.266Z,10.02
2023-03-18T02:34:08.792Z,8.25
2023-03-18T02:36:38.221Z,8.80
2023-03-18T02:39:13.697Z,10.40
2023-03-18T02:41:41.396Z,7.97
2023-03-18T02:44:10.501Z,11.82
2023-03-18T02:46:48.837Z,11.23
2023-03-18T02:49:19.277Z,8.32
2023-03-18T02:51:46.786Z,10.85
2023-03-18T02:54:21.886Z,10.70
2023-03-18T02:56:49.565Z,9.05
2023-03-18T02:59:17.634Z,10.88
2023-03-18T03:01:48.128Z,8.52
2023-03-18T03:04:16.415Z,9.98
2023-03-18T03:06:44.678Z,10.07
2023-03-18T03:09:15.730Z,12.60
2023-03-18T03:11:45.640Z,9.82
2023-03-18T03:14:17.870Z,9.52
2023-03-18T03:16:48.708Z,12.90
2023-03-18T03:19:17.126Z,11.57
2023-03-18T03:21:44.432Z,11.10
2023-03-18T03:24:11.847Z,8.45
2023-03-18T03:26:40.506Z,12.38
2023-03-18T03:29:07.820Z,10.93
2023-03-18T03:31:35.845Z,11.93
2023-03-18T03:34:06.864Z,10.70
2023-03-18T03:36:36.748Z,10.40
2023-03-18T03:39:04.444Z,11.43
2023-03-18T03:41:35.869Z,11.73
2023-03-18T03:44:03.206Z,9.13
2023-03-18T03:46:31.452Z,9.90
2023-03-18T03:48:59.540Z,11.57
2023-03-18T03:51:26.833Z,12.02
2023-03-18T03:53:54.266Z,10.65
2023-03-18T03:56:22.527Z,10.07
2023-03-18T03:58:49.801Z,14.82
2023-03-18T04:01:19.705Z,7.90
2023-03-18T04:03:48.749Z,11.00
2023-03-18T04:06:17.637Z,9.20
2023-03-18T04:08:52.648Z,8.10
2023-03-18T04:11:21.365Z,9.65
2023-03-18T04:13:49.031Z,11.65
2023-03-18T04:16:17.390Z,10.18
2023-03-18T04:18:45.203Z,10.65
2023-03-18T04:21:12.691Z,9.77
2023-03-18T04:23:44.429Z,9.45
2023-03-18T04:26:13.383Z,10.95
2023-03-18T04:28:41.174Z,12.13
2023-03-18T04:31:10.904Z,13.45
2023-03-18T04:33:38.651Z,12.00
2023-03-18T04:36:06.407Z,13.88
2023-03-18T04:38:34.472Z,11.57
2023-03-18T04:41:01.829Z,13.10
2023-03-18T04:43:29.707Z,12.57
2023-03-18T04:45:57.182Z,11.90
2023-03-18T04:48:24.905Z,8.02
2023-03-18T04:50:56.087Z,10.30
2023-03-18T04:53:27.399Z,13.00
2023-03-18T04:55:54.706Z,10.40
2023-03-18T04:58:28.145Z,8.50
2023-03-18T05:01:18.148Z,13.60
2023-03-18T05:03:45.568Z,9.65
2023-03-18T05:06:24.853Z,10.38
2023-03-18T05:09:00.454Z,11.55
2023-03-18T05:11:33.301Z,13.27
2023-03-18T05:14:08.210Z,9.82
2023-03-18T05:16:42.685Z,11.07
2023-03-18T05:19:10.944Z,12.60
2023-03-18T05:21:44.602Z,14.18
2023-03-18T05:24:12.043Z,7.97
2023-03-18T05:26:41.693Z,8.05
2023-03-18T05:29:10.038Z,8.85
2023-03-18T05:31:52.031Z,9.38
2023-03-18T05:34:19.408Z,12.02
2023-03-18T05:36:47.381Z,11.40
2023-03-18T05:39:14.776Z,11.05
2023-03-18T05:41:42.134Z,11.95
2023-03-18T05:44:12.957Z,12.10
2023-03-18T05:46:42.117Z,13.55
2023-03-18T05:49:13.734Z,11.63
2023-03-18T05:52:01.406Z,11.10
2023-03-18T05:54:37.394Z,11.95
2023-03-18T05:57:05.255Z,10.68
2023-03-18T05:59:32.565Z,11.15
2023-03-18T06:02:02.031Z,11.60
2023-03-18T06:04:30.004Z,12.73
2023-03-18T06:06:58.476Z,13.15
2023-03-18T06:09:28.740Z,16.45
2023-03-18T06:11:58.754Z,15.75
2023-03-18T06:14:29.957Z,10.95
2023-03-18T06:17:01.263Z,10.13
2023-03-18T06:19:30.900Z,13.02
2023-03-18T06:21:58.993Z,11.23
2023-03-18T06:24:26.506Z,14.88
2023-03-18T06:26:55.945Z,13.32
2023-03-18T06:29:23.294Z,16.98
2023-03-18T06:31:50.656Z,12.75
2023-03-18T06:34:22.807Z,9.98
2023-03-18T06:36:50.247Z,11.93
2023-03-18T06:39:20.063Z,19.25
2023-03-18T06:41:48.126Z,16.55
2023-03-18T06:44:31.520Z,19.50
2023-03-18T06:47:06.716Z,14.82
2023-03-18T06:49:38.044Z,14.10
2023-03-18T06:52:11.954Z,16.05
2023-03-18T06:54:40.432Z,16.33
2023-03-18T06:57:08.763Z,14.07
2023-03-18T06:59:37.674Z,13.85
2023-03-18T07:02:05.960Z,14.55
2023-03-18T07:04:34.069Z,15.55
2023-03-18T07:07:01.681Z,18.13
2023-03-18T07:09:29.349Z,15.10
2023-03-18T07:11:59.148Z,15.85
2023-03-18T07:14:28.631Z,14.80
2023-03-18T07:16:57.037Z,12.25
2023-03-18T07:19:24.925Z,18.60
2023-03-18T07:21:52.366Z,15.23
2023-03-18T07:24:21.738Z,18.25
2023-03-18T07:26:53.773Z,15.00
2023-03-18T07:29:21.259Z,13.73
2023-03-18T07:31:48.762Z,14.38
2023-03-18T07:34:17.957Z,14.15
2023-03-18T07:36:45.938Z,12.30
2023-03-18T07:39:13.241Z,11.20
2023-03-18T07:41:40.588Z,12.00
2023-03-18T07:44:08.085Z,12.68
2023-03-18T07:46:35.675Z,13.30
2023-03-18T07:49:03.184Z,14.77
2023-03-18T07:51:30.519Z,14.60
2023-03-18T07:53:57.801Z,10.43
2023-03-18T07:56:26.214Z,22.08
2023-03-18T07:58:53.637Z,14.55
2023-03-18T08:01:21.057Z,15.73
2023-03-18T08:03:48.476Z,16.23
2023-03-18T08:06:16.343Z,14.25
2023-03-18T08:08:44.045Z,12.10
2023-03-18T08:11:11.858Z,14.88
2023-03-18T08:13:39.836Z,13.75
2023-03-18T08:16:07.658Z,13.77
2023-03-18T08:18:35.639Z,13.80
2023-03-18T08:21:02.932Z,15.30
2023-03-18T08:23:30.319Z,11.52
2023-03-18T08:25:57.720Z,14.18
2023-03-18T08:28:25.970Z,13.85
2023-03-18T08:30:57.454Z,13.48
2023-03-18T08:33:26.080Z,17.67
2023-03-18T08:35:54.266Z,14.23
2023-03-18T08:38:21.981Z,10.57
2023-03-18T08:40:49.314Z,13.90
2023-03-18T08:43:17.052Z,15.90
2023-03-18T08:45:44.480Z,12.18
2023-03-18T08:48:11.710Z,38.15
2023-03-18T08:50:39.041Z,9.95
2023-03-18T08:53:06.385Z,13.45
2023-03-18T08:55:40.903Z,40.63
2023-03-18T08:58:08.826Z,20.58
2023-03-18T09:00:38.706Z,10.15
2023-03-18T09:03:06.477Z,29.92
2023-03-18T09:05:34.229Z,14.65
2023-03-18T09:08:01.705Z,8.45
2023-03-18T09:10:30.373Z,9.20
2023-03-18T09:12:57.943Z,7.22
2023-03-18T09:15:25.332Z,12.90
2023-03-18T09:18:09.898Z,11.75
2023-03-18T09:20:38.086Z,12.75
2023-03-18T09:23:06.073Z,9.45
2023-03-18T09:25:34.677Z,14.25
2023-03-18T09:28:02.377Z,9.63
2023-03-18T09:30:30.370Z,10.55
2023-03-18T09:32:57.893Z,13.60
2023-03-18T09:35:25.825Z,11.07
2023-03-18T09:37:54.162Z,37.65
2023-03-18T09:40:32.890Z,24.83
2023-03-18T09:43:05.813Z,31.77
2023-03-18T09:45:35.970Z,14.20
2023-03-18T09:48:09.784Z,11.48
2023-03-18T09:51:18.182Z,12.27
2023-03-18T09:53:50.844Z,13.77
2023-03-18T09:56:31.018Z,8.82
2023-03-18T09:59:13.178Z,6.97
2023-03-18T10:01:43.109Z,15.73
2023-03-18T10:04:25.265Z,7.63
2023-03-18T10:07:19.336Z,8.95
2023-03-18T10:10:00.887Z,6.95
2023-03-18T10:12:46.465Z,10.43
2023-03-18T10:15:19.895Z,20.33
2023-03-18T10:17:57.645Z,9.52
2023-03-18T10:21:02.528Z,8.80
2023-03-18T10:23:51.270Z,11.48
2023-03-18T10:26:27.766Z,7.32
2023-03-18T10:29:13.697Z,11.30
2023-03-18T10:31:55.172Z,8.25
2023-03-18T10:34:27.419Z,10.80
2023-03-18T10:37:12.850Z,13.73
2023-03-18T10:39:41.553Z,14.80
2023-03-18T10:42:29.978Z,10.93
2023-03-18T10:45:15.662Z,10.35
2023-03-18T10:47:49.599Z,9.68
2023-03-18T10:50:32.899Z,15.30
2023-03-18T10:53:16.701Z,15.30
2023-03-18T10:56:10.523Z,9.25
2023-03-18T10:58:39.866Z,11.57
2023-03-18T11:01:09.317Z,19.05
2023-03-18T11:03:44.668Z,19.02
2023-03-18T11:06:20.305Z,6.40
2023-03-18T11:08:49.124Z,17.08
2023-03-18T11:11:33.136Z,7.50
2023-03-18T11:14:03.342Z,15.82
2023-03-18T11:16:41.650Z,9.38
2023-03-18T11:19:22.912Z,44.45
2023-03-18T11:22:18.190Z,8.25
2023-03-18T11:24:45.842Z,17.55
2023-03-18T11:27:18.710Z,7.13
2023-03-18T11:30:00.695Z,8.38
2023-03-18T11:32:31.475Z,7.30
2023-03-18T11:35:05.350Z,5.72
2023-03-18T11:37:36.567Z,6.57
2023-03-18T11:40:23.807Z,35.47
2023-03-18T11:42:56.789Z,13.43
2023-03-18T11:45:25.270Z,6.68
2023-03-18T11:47:54.402Z,7.57
2023-03-18T11:50:26.273Z,79.53
2023-03-18T11:52:56.862Z,9.93
2023-03-18T11:55:59.701Z,7.43
2023-03-18T11:59:05.718Z,5.03
2023-03-18T12:01:54.339Z,10.27
2023-03-18T12:04:42.803Z,8.88
2023-03-18T12:07:22.347Z,4.85
2023-03-18T12:10:13.170Z,9.05
2023-03-18T12:13:00.436Z,9.48
2023-03-18T12:15:49.080Z,9.93
2023-03-18T12:18:22.274Z,11.10
2023-03-18T12:20:55.256Z,8.10
2023-03-18T12:23:57.033Z,11.23
2023-03-18T12:26:46.672Z,44.70
2023-03-18T12:29:38.210Z,10.25
2023-03-18T12:32:34.018Z,17.15
2023-03-18T12:35:33.344Z,10.20
2023-03-18T12:38:20.006Z,9.40
2023-03-18T12:41:11.562Z,9.75
2023-03-18T12:43:45.557Z,9.32
2023-03-18T12:46:22.565Z,12.25
2023-03-18T12:49:06.318Z,7.47
2023-03-18T12:52:03.061Z,7.15
2023-03-18T12:54:47.558Z,12.45
2023-03-18T12:57:39.336Z,6.15
2023-03-18T13:00:18.997Z,7.90
2023-03-18T13:03:07.731Z,8.65
2023-03-18T13:05:40.863Z,7.10
2023-03-18T13:08:37.472Z,8.60
2023-03-18T13:11:32.396Z,9.45
2023-03-18T13:14:21.939Z,9.65
2023-03-18T13:16:50.756Z,5.78
2023-03-18T13:19:18.650Z,7.18
2023-03-18T13:22:12.761Z,8.55
2023-03-18T13:24:49.861Z,8.70
2023-03-18T13:27:20.334Z,9.02
2023-03-18T13:30:31.032Z,6.43
2023-03-18T13:33:19.340Z,8.75
2023-03-18T13:36:08.933Z,5.70
2023-03-18T13:39:05.485Z,8.95
2023-03-18T13:42:08.142Z,7.80
2023-03-18T13:44:43.634Z,9.38
2023-03-18T13:47:19.964Z,6.63
2023-03-18T13:49:48.051Z,5.28
2023-03-18T13:52:47.138Z,5.53
2023-03-18T13:55:47.618Z,11.20
2023-03-18T13:58:30.560Z,8.57
2023-03-18T14:01:01.271Z,16.77
2023-03-18T14:03:52.276Z,9.60
2023-03-18T14:06:23.701Z,7.88
2023-03-18T14:08:52.926Z,11.15
2023-03-18T14:11:22.784Z,10.38
2023-03-18T14:13:54.832Z,5.88
2023-03-18T14:19:21.009Z,10.43
2023-03-18T14:21:53.747Z,18.10
2023-03-18T14:24:24.770Z,11.60
2023-03-18T14:27:03.877Z,8.95
2023-03-18T14:29:37.285Z,10.75
2023-03-18T14:32:08.788Z,10.85
2023-03-18T14:34:53.749Z,7.80
2023-03-18T14:37:30.526Z,8.27
2023-03-18T14:40:16.405Z,7.60
2023-03-18T14:43:08.377Z,11.98
2023-03-18T14:45:40.282Z,6.95
2023-03-18T14:48:33.016Z,11.02
2023-03-18T14:51:17.239Z,5.90
2023-03-18T14:54:15.138Z,7.55
2023-03-18T14:56:51.533Z,12.23
2023-03-18T14:59:19.308Z,7.18
2023-03-18T15:01:51.624Z,8.50
2023-03-18T15:04:26.776Z,8.48
2023-03-18T15:06:56.787Z,8.68
2023-03-18T15:09:30.136Z,9.85
2023-03-18T15:11:57.905Z,13.57
2023-03-18T15:14:31.556Z,8.27
2023-03-18T15:17:11.512Z,8.43
2023-03-18T15:19:38.913Z,11.68
2023-03-18T15:22:07.787Z,9.23
2023-03-18T15:24:35.823Z,6.50
2023-03-18T15:27:18.827Z,8.77
2023-03-18T15:29:57.533Z,8.52
2023-03-18T15:32:31.187Z,6.30
2023-03-18T15:35:17.508Z,6.72
2023-03-18T15:37:46.709Z,46.85
2023-03-18T15:40:31.243Z,14.63
2023-03-18T15:43:17.064Z,4.82
2023-03-18T15:45:57.815Z,9.55
2023-03-18T15:48:54.934Z,10.02
2023-03-18T15:51:33.041Z,7.07
2023-03-18T15:54:09.526Z,7.88
2023-03-18T15:56:45.477Z,10.50
2023-03-18T15:59:19.242Z,5.28
2023-03-18T16:01:49.744Z,10.30
2023-03-18T16:04:18.388Z,9.25
2023-03-18T16:06:45.697Z,9.15
2023-03-18T16:09:17.559Z,10.13
2023-03-18T16:11:55.285Z,6.20
2023-03-18T16:14:26.341Z,13.75
2023-03-18T16:16:53.784Z,12.05
2023-03-18T16:19:28.277Z,40.75
2023-03-18T16:21:57.398Z,9.63
2023-03-18T16:24:25.789Z,11.40
2023-03-18T16:26:54.664Z,7.25
2023-03-18T16:29:31.737Z,7.18
2023-03-18T16:31:59.966Z,10.93
2023-03-18T16:34:28.114Z,7.25
2023-03-18T16:36:56.359Z,8.93
2023-03-18T16:39:27.408Z,11.05
2023-03-18T16:41:54.995Z,11.13
2023-03-18T16:44:23.856Z,7.50
2023-03-18T16:46:57.753Z,14.18
2023-03-18T16:49:29.946Z,11.38
2023-03-18T16:51:58.138Z,8.60
2023-03-18T16:54:31.730Z,9.23
2023-03-18T16:57:02.551Z,9.77
2023-03-18T16:59:33.915Z,13.70
2023-03-18T17:02:02.219Z,10.53
2023-03-18T17:04:35.079Z,21.90
2023-03-18T17:07:04.851Z,14.50
2023-03-18T17:09:32.440Z,8.55
2023-03-18T17:12:04.345Z,7.95
2023-03-18T17:14:39.956Z,10.45
2023-03-18T17:17:14.736Z,10.43
2023-03-18T17:19:42.091Z,11.45
2023-03-18T17:22:27.857Z,8.10
2023-03-18T17:24:55.215Z,8.57
2023-03-18T17:27:26.768Z,10.02
2023-03-18T17:29:54.072Z,9.68
2023-03-18T17:32:22.536Z,9.18
2023-03-18T17:34:52.388Z,15.05
2023-03-18T17:37:21.082Z,20.90
2023-03-18T17:39:48.465Z,12.50
2023-03-18T17:42:31.532Z,11.30
2023-03-18T17:45:16.938Z,10.02
2023-03-18T17:47:44.450Z,10.13
2023-03-18T17:50:18.779Z,13.02
2023-03-18T17:52:48.772Z,52.63
2023-03-18T17:55:30.244Z,14.93
2023-03-18T17:57:57.655Z,9.25
2023-03-18T18:00:26.626Z,8.85
2023-03-18T18:02:54.938Z,13.43
2023-03-18T18:05:23.667Z,12.27
2023-03-18T18:07:51.707Z,10.25
2023-03-18T18:10:20.936Z,17.38
2023-03-18T18:12:50.041Z,12.55
2023-03-18T18:15:17.788Z,45.65
2023-03-18T18:17:46.440Z,147.32
2023-03-18T18:20:15.833Z,73.57
2023-03-18T18:22:47.139Z,216.45
2023-03-18T18:25:20.541Z,92.10
2023-03-18T18:27:48.697Z,50.25
2023-03-18T18:30:18.638Z,27.92
2023-03-18T18:32:46.546Z,57.10
2023-03-18T18:35:19.306Z,92.80
2023-03-18T18:37:48.625Z,67.40
2023-03-18T18:40:18.172Z,65.43
2023-03-18T18:42:45.455Z,165.50
2023-03-18T18:45:18.434Z,41.13
2023-03-18T18:47:45.784Z,34.97
2023-03-18T18:50:18.439Z,49.22
2023-03-18T18:52:46.092Z,29.55
2023-03-18T18:55:13.567Z,52.20
2023-03-18T18:57:44.039Z,198.52
2023-03-18T19:00:20.896Z,85.72
2023-03-18T19:02:51.639Z,157.77
2023-03-18T19:05:18.963Z,343.70
2023-03-18T19:07:46.664Z,91.03
2023-03-18T19:10:15.538Z,82.80
2023-03-18T19:12:44.539Z,66.43
2023-03-18T19:15:14.819Z,109.43
2023-03-18T19:17:43.607Z,453.48
2023-03-18T19:20:29.937Z,88.22
2023-03-18T19:22:57.796Z,76.53
2023-03-18T19:25:26.072Z,96.63
2023-03-18T19:27:54.398Z,394.23
2023-03-18T19:30:25.123Z,122.97
2023-03-18T19:32:52.560Z,497.27
2023-03-18T19:35:19.947Z,41.80
2023-03-18T19:37:48.174Z,248.00
2023-03-18T19:40:30.905Z,32.05
2023-03-18T19:42:58.293Z,90.40
2023-03-18T19:45:25.938Z,101.88
2023-03-18T19:47:53.762Z,151.63
2023-03-18T19:50:22.559Z,435.33
2023-03-18T19:52:50.049Z,478.10
2023-03-18T19:55:17.700Z,92.25
2023-03-18T19:57:48.330Z,62.08
2023-03-18T20:00:25.749Z,71.47
2023-03-18T20:02:54.415Z,159.55
2023-03-18T20:05:23.672Z,457.80
2023-03-18T20:07:51.111Z,513.67
2023-03-18T20:10:20.412Z,215.57
2023-03-18T20:12:49.627Z,253.57
2023-03-18T20:15:16.896Z,471.38
2023-03-18T20:17:47.041Z,188.65
2023-03-18T20:20:20.324Z,61.63
2023-03-18T20:22:56.949Z,215.57
2023-03-18T20:25:28.492Z,343.77
2023-03-18T20:27:57.916Z,20.93
2023-03-18T20:30:31.272Z,53.08
2023-03-18T20:33:00.241Z,88.63
2023-03-18T20:35:29.782Z,50.78
2023-03-18T20:38:00.985Z,43.28
2023-03-18T20:40:34.138Z,58.83
2023-03-18T20:43:02.062Z,182.43
2023-03-18T20:45:29.388Z,87.82
2023-03-18T20:47:56.962Z,153.93
2023-03-18T20:50:31.420Z,341.10
2023-03-18T20:53:08.324Z,178.38
2023-03-18T20:55:39.553Z,130.18
2023-03-18T20:58:10.207Z,428.17
2023-03-18T21:00:38.704Z,163.43
2023-03-18T21:03:16.290Z,272.55
2023-03-18T21:05:44.897Z,359.90
2023-03-18T21:08:12.265Z,508.58
2023-03-18T21:10:39.871Z,408.95
2023-03-18T21:13:32.864Z,241.75
2023-03-18T21:16:01.244Z,96.60
2023-03-18T21:18:28.942Z,135.82
2023-03-18T21:20:57.118Z,146.88
2023-03-18T21:23:27.629Z,282.55
2023-03-18T21:25:56.166Z,56.55
2023-03-18T21:28:25.694Z,162.35
2023-03-18T21:30:57.975Z,98.75
2023-03-18T21:33:33.738Z,36.28
2023-03-18T21:36:02.394Z,24.17
2023-03-18T21:38:31.900Z,54.30
2023-03-18T21:41:00.853Z,76.22
2023-03-18T21:43:38.224Z,72.25
2023-03-18T21:46:07.716Z,87.25
2023-03-18T21:48:35.018Z,116.80
2023-03-18T21:51:02.411Z,126.72
2023-03-18T21:53:29.763Z,525.25
2023-03-18T21:55:57.208Z,544.65
2023-03-18T21:58:28.266Z,368.60
2023-03-18T22:00:58.200Z,62.65
2023-03-18T22:03:28.579Z,344.65
2023-03-18T22:05:56.918Z,115.47
2023-03-18T22:08:25.533Z,95.90
2023-03-18T22:10:53.577Z,77.55
2023-03-18T22:13:23.553Z,168.73
2023-03-18T22:15:52.752Z,87.43
2023-03-18T22:18:20.359Z,99.72
2023-03-18T22:20:49.893Z,48.72
2023-03-18T22:23:19.077Z,123.78
2023-03-18T22:25:49.105Z,111.68
2023-03-18T22:28:16.820Z,103.03
2023-03-18T22:30:46.295Z,28.58
2023-03-18T22:33:19.047Z,17.88
2023-03-18T22:35:46.843Z,31.95
2023-03-18T22:38:17.036Z,14.82
2023-03-18T22:40:46.199Z,16.50
2023-03-18T22:43:39.701Z,15.30
2023-03-18T22:46:09.271Z,15.20
2023-03-18T22:48:36.505Z,18.90
2023-03-18T22:51:04.797Z,20.50
2023-03-18T22:53:34.450Z,18.00
2023-03-18T22:56:10.789Z,17.67
2023-03-18T22:58:38.493Z,49.22
2023-03-18T23:01:06.479Z,49.67
2023-03-18T23:03:36.211Z,21.17
2023-03-18T23:06:04.551Z,18.73
2023-03-18T23:08:32.470Z,18.05
2023-03-18T23:11:01.906Z,16.27
2023-03-18T23:13:34.709Z,18.85
2023-03-18T23:16:04.437Z,17.88
2023-03-18T23:18:31.711Z,19.48
2023-03-18T23:20:59.696Z,13.00
2023-03-18T23:23:28.514Z,15.57
2023-03-18T23:25:56.277Z,13.52
2023-03-18T23:28:23.622Z,13.57
2023-03-18T23:30:52.878Z,12.63
2023-03-18T23:33:20.693Z,11.65
2023-03-18T23:35:49.022Z,13.30
2023-03-18T23:38:16.727Z,13.30
2023-03-18T23:40:44.085Z,18.15
2023-03-18T23:43:11.974Z,14.27
2023-03-18T23:45:39.803Z,14.00
2023-03-18T23:48:07.884Z,12.45
2023-03-18T23:50:35.210Z,12.40
2023-03-18T23:53:03.469Z,50.72
2023-03-18T23:55:34.888Z,13.65
2023-03-18T23:58:03.648Z,14.32
